sensor_id;sensor_type;location;lat;lon;timestamp;temperature;humidity
69054;DHT22;56125;52.242;4.756;2022-11-20T00:01:44;16.80;45.30
69054;DHT22;56125;52.242;4.756;2022-11-20T00:06:46;16.80;45.40
69054;DHT22;56125;52.242;4.756;2022-11-20T00:11:47;16.80;45.60
69054;DHT22;56125;52.242;4.756;2022-11-20T00:16:49;16.80;45.60
69054;DHT22;56125;52.242;4.756;2022-11-20T00:21:50;16.80;45.40
69054;DHT22;56125;52.242;4.756;2022-11-20T00:26:56;16.80;45.50
69054;DHT22;56125;52.242;4.756;2022-11-20T00:31:57;16.80;45.60
69054;DHT22;56125;52.242;4.756;2022-11-20T00:36:58;16.70;46.50
69054;DHT22;56125;52.242;4.756;2022-11-20T00:41:59;16.80;45.60
69054;DHT22;56125;52.242;4.756;2022-11-20T00:47:00;16.70;45.60
69054;DHT22;56125;52.242;4.756;2022-11-20T00:52:01;16.70;45.80
69054;DHT22;56125;52.242;4.756;2022-11-20T00:57:02;16.70;45.60
69054;DHT22;56125;52.242;4.756;2022-11-20T01:02:03;16.70;45.60
69054;DHT22;56125;52.242;4.756;2022-11-20T01:07:04;16.70;45.60
69054;DHT22;56125;52.242;4.756;2022-11-20T01:12:05;16.70;45.50
69054;DHT22;56125;52.242;4.756;2022-11-20T01:17:06;16.70;45.50
69054;DHT22;56125;52.242;4.756;2022-11-20T01:22:07;16.70;45.60
69054;DHT22;56125;52.242;4.756;2022-11-20T01:27:08;16.70;45.60
69054;DHT22;56125;52.242;4.756;2022-11-20T01:32:09;16.70;45.60
69054;DHT22;56125;52.242;4.756;2022-11-20T01:37:10;16.70;45.60
69054;DHT22;56125;52.242;4.756;2022-11-20T01:42:11;16.70;45.60
69054;DHT22;56125;52.242;4.756;2022-11-20T01:47:34;16.70;45.60
69054;DHT22;56125;52.242;4.756;2022-11-20T01:52:50;16.70;45.50
69054;DHT22;56125;52.242;4.756;2022-11-20T01:57:53;16.70;45.50
69054;DHT22;56125;52.242;4.756;2022-11-20T02:02:57;16.70;45.60
69054;DHT22;56125;52.242;4.756;2022-11-20T02:07:59;16.60;45.60
69054;DHT22;56125;52.242;4.756;2022-11-20T02:13:01;16.60;45.50
69054;DHT22;56125;52.242;4.756;2022-11-20T02:18:21;16.60;45.60
69054;DHT22;56125;52.242;4.756;2022-11-20T02:29:02;16.60;45.60
69054;DHT22;56125;52.242;4.756;2022-11-20T02:34:04;16.70;45.60
69054;DHT22;56125;52.242;4.756;2022-11-20T02:39:05;16.70;45.70
69054;DHT22;56125;52.242;4.756;2022-11-20T02:44:07;16.70;45.60
69054;DHT22;56125;52.242;4.756;2022-11-20T02:49:08;16.70;45.90
69054;DHT22;56125;52.242;4.756;2022-11-20T02:54:09;16.70;45.60
69054;DHT22;56125;52.242;4.756;2022-11-20T02:59:10;16.70;46.30
69054;DHT22;56125;52.242;4.756;2022-11-20T03:04:11;16.70;45.60
69054;DHT22;56125;52.242;4.756;2022-11-20T03:09:12;16.70;46.20
69054;DHT22;56125;52.242;4.756;2022-11-20T03:14:13;16.70;46.20
69054;DHT22;56125;52.242;4.756;2022-11-20T03:19:15;16.70;46.70
69054;DHT22;56125;52.242;4.756;2022-11-20T03:24:16;16.70;46.00
69054;DHT22;56125;52.242;4.756;2022-11-20T03:29:17;16.80;46.30
69054;DHT22;56125;52.242;4.756;2022-11-20T03:34:18;16.80;45.90
69054;DHT22;56125;52.242;4.756;2022-11-20T03:39:19;16.80;45.80
69054;DHT22;56125;52.242;4.756;2022-11-20T03:44:21;16.80;45.70
69054;DHT22;56125;52.242;4.756;2022-11-20T03:49:22;16.90;45.40
69054;DHT22;56125;52.242;4.756;2022-11-20T03:54:23;16.90;45.60
69054;DHT22;56125;52.242;4.756;2022-11-20T03:59:24;17.00;44.80
69054;DHT22;56125;52.242;4.756;2022-11-20T04:04:25;17.00;45.10
69054;DHT22;56125;52.242;4.756;2022-11-20T04:09:26;17.10;44.40
69054;DHT22;56125;52.242;4.756;2022-11-20T04:14:27;17.00;45.10
69054;DHT22;56125;52.242;4.756;2022-11-20T04:19:28;17.10;44.40
69054;DHT22;56125;52.242;4.756;2022-11-20T04:24:29;17.10;44.90
69054;DHT22;56125;52.242;4.756;2022-11-20T04:29:30;17.20;44.30
69054;DHT22;56125;52.242;4.756;2022-11-20T04:34:31;17.20;44.40
69054;DHT22;56125;52.242;4.756;2022-11-20T04:39:32;17.30;44.20
69054;DHT22;56125;52.242;4.756;2022-11-20T04:44:33;17.30;44.00
69054;DHT22;56125;52.242;4.756;2022-11-20T04:49:34;17.40;43.70
69054;DHT22;56125;52.242;4.756;2022-11-20T04:54:35;17.40;43.80
69054;DHT22;56125;52.242;4.756;2022-11-20T04:59:36;17.50;43.70
69054;DHT22;56125;52.242;4.756;2022-11-20T05:04:37;17.50;43.90
69054;DHT22;56125;52.242;4.756;2022-11-20T05:09:38;17.60;43.40
69054;DHT22;56125;52.242;4.756;2022-11-20T05:14:39;17.50;43.60
69054;DHT22;56125;52.242;4.756;2022-11-20T05:19:40;17.60;43.30
69054;DHT22;56125;52.242;4.756;2022-11-20T05:24:41;17.60;43.30
69054;DHT22;56125;52.242;4.756;2022-11-20T05:29:42;17.70;43.00
69054;DHT22;56125;52.242;4.756;2022-11-20T05:34:43;17.70;43.50
69054;DHT22;56125;52.242;4.756;2022-11-20T05:39:44;17.80;43.10
69054;DHT22;56125;52.242;4.756;2022-11-20T05:44:45;17.80;43.00
69054;DHT22;56125;52.242;4.756;2022-11-20T05:49:46;18.00;42.80
69054;DHT22;56125;52.242;4.756;2022-11-20T05:54:48;18.00;42.70
69054;DHT22;56125;52.242;4.756;2022-11-20T05:59:49;18.00;42.30
69054;DHT22;56125;52.242;4.756;2022-11-20T06:04:50;18.10;42.90
69054;DHT22;56125;52.242;4.756;2022-11-20T06:09:51;18.10;42.50
69054;DHT22;56125;52.242;4.756;2022-11-20T06:14:52;18.10;42.70
69054;DHT22;56125;52.242;4.756;2022-11-20T06:19:53;18.30;42.50
69054;DHT22;56125;52.242;4.756;2022-11-20T06:24:54;18.20;42.50
69054;DHT22;56125;52.242;4.756;2022-11-20T06:29:55;18.30;42.20
69054;DHT22;56125;52.242;4.756;2022-11-20T06:34:56;18.30;42.40
69054;DHT22;56125;52.242;4.756;2022-11-20T06:39:57;18.40;42.00
69054;DHT22;56125;52.242;4.756;2022-11-20T06:44:58;18.40;42.30
69054;DHT22;56125;52.242;4.756;2022-11-20T06:49:59;18.50;42.10
69054;DHT22;56125;52.242;4.756;2022-11-20T06:55:00;18.50;42.00
69054;DHT22;56125;52.242;4.756;2022-11-20T07:00:01;18.40;41.90
69054;DHT22;56125;52.242;4.756;2022-11-20T07:05:02;18.40;42.80
69054;DHT22;56125;52.242;4.756;2022-11-20T07:10:03;18.40;42.30
69054;DHT22;56125;52.242;4.756;2022-11-20T07:15:05;18.40;41.70
69054;DHT22;56125;52.242;4.756;2022-11-20T07:20:06;18.40;41.10
69054;DHT22;56125;52.242;4.756;2022-11-20T07:25:08;18.40;40.70
69054;DHT22;56125;52.242;4.756;2022-11-20T07:30:10;18.40;40.50
69054;DHT22;56125;52.242;4.756;2022-11-20T07:35:11;18.40;40.30
69054;DHT22;56125;52.242;4.756;2022-11-20T07:40:13;18.40;40.00
69054;DHT22;56125;52.242;4.756;2022-11-20T07:45:14;18.40;39.80
69054;DHT22;56125;52.242;4.756;2022-11-20T07:50:16;18.40;39.30
69054;DHT22;56125;52.242;4.756;2022-11-20T07:55:17;18.50;40.00
69054;DHT22;56125;52.242;4.756;2022-11-20T08:00:18;18.50;39.80
69054;DHT22;56125;52.242;4.756;2022-11-20T08:05:19;18.50;40.10
69054;DHT22;56125;52.242;4.756;2022-11-20T08:10:20;18.40;39.70
69054;DHT22;56125;52.242;4.756;2022-11-20T08:15:22;18.40;40.10
69054;DHT22;56125;52.242;4.756;2022-11-20T08:20:23;18.40;40.00
69054;DHT22;56125;52.242;4.756;2022-11-20T08:25:24;18.30;41.30
69054;DHT22;56125;52.242;4.756;2022-11-20T08:30:26;18.30;40.10
69054;DHT22;56125;52.242;4.756;2022-11-20T08:35:27;18.30;40.50
69054;DHT22;56125;52.242;4.756;2022-11-20T08:40:28;18.20;39.80
69054;DHT22;56125;52.242;4.756;2022-11-20T08:45:29;18.20;40.20
69054;DHT22;56125;52.242;4.756;2022-11-20T08:50:31;18.20;40.20
69054;DHT22;56125;52.242;4.756;2022-11-20T08:55:33;18.20;40.70
69054;DHT22;56125;52.242;4.756;2022-11-20T09:00:36;18.20;41.00
69054;DHT22;56125;52.242;4.756;2022-11-20T09:05:37;18.20;42.00
69054;DHT22;56125;52.242;4.756;2022-11-20T09:10:38;18.20;41.00
69054;DHT22;56125;52.242;4.756;2022-11-20T09:15:42;18.20;41.30
69054;DHT22;56125;52.242;4.756;2022-11-20T09:20:43;18.20;41.40
69054;DHT22;56125;52.242;4.756;2022-11-20T09:25:44;18.20;41.70
69054;DHT22;56125;52.242;4.756;2022-11-20T09:30:45;18.20;41.60
69054;DHT22;56125;52.242;4.756;2022-11-20T09:35:46;18.20;41.60
69054;DHT22;56125;52.242;4.756;2022-11-20T09:40:57;18.10;41.70
69054;DHT22;56125;52.242;4.756;2022-11-20T09:46:05;18.10;41.90
69054;DHT22;56125;52.242;4.756;2022-11-20T09:56:37;18.10;42.00
69054;DHT22;56125;52.242;4.756;2022-11-20T10:01:40;18.10;42.00
69054;DHT22;56125;52.242;4.756;2022-11-20T10:17:53;18.00;42.70
69054;DHT22;56125;52.242;4.756;2022-11-20T10:33:40;18.00;43.20
69054;DHT22;56125;52.242;4.756;2022-11-20T10:39:01;17.90;43.20
69054;DHT22;56125;52.242;4.756;2022-11-20T10:44:19;17.90;43.50
69054;DHT22;56125;52.242;4.756;2022-11-20T10:49:39;17.80;43.40
69054;DHT22;56125;52.242;4.756;2022-11-20T10:54:57;17.80;43.40
69054;DHT22;56125;52.242;4.756;2022-11-20T11:00:11;17.80;43.50
69054;DHT22;56125;52.242;4.756;2022-11-20T11:05:31;17.70;43.60
69054;DHT22;56125;52.242;4.756;2022-11-20T11:10:46;17.70;43.60
69054;DHT22;56125;52.242;4.756;2022-11-20T11:15:48;17.70;43.50
69054;DHT22;56125;52.242;4.756;2022-11-20T11:20:50;17.70;43.90
69054;DHT22;56125;52.242;4.756;2022-11-20T11:25:57;17.60;44.10
69054;DHT22;56125;52.242;4.756;2022-11-20T11:30:59;17.60;44.20
69054;DHT22;56125;52.242;4.756;2022-11-20T11:36:03;17.60;44.30
69054;DHT22;56125;52.242;4.756;2022-11-20T11:41:06;17.60;44.50
69054;DHT22;56125;52.242;4.756;2022-11-20T11:46:32;17.60;45.40
69054;DHT22;56125;52.242;4.756;2022-11-20T11:57:00;17.60;44.60
69054;DHT22;56125;52.242;4.756;2022-11-20T12:02:05;17.50;44.60
69054;DHT22;56125;52.242;4.756;2022-11-20T12:07:22;17.60;44.70
69054;DHT22;56125;52.242;4.756;2022-11-20T12:12:34;17.50;45.10
69054;DHT22;56125;52.242;4.756;2022-11-20T12:17:37;17.50;45.40
69054;DHT22;56125;52.242;4.756;2022-11-20T12:33:19;17.50;48.40
69054;DHT22;56125;52.242;4.756;2022-11-20T12:38:57;17.50;49.20
69054;DHT22;56125;52.242;4.756;2022-11-20T12:50:02;17.50;50.50
69054;DHT22;56125;52.242;4.756;2022-11-20T12:55:21;17.50;50.80
69054;DHT22;56125;52.242;4.756;2022-11-20T13:00:25;17.50;51.00
69054;DHT22;56125;52.242;4.756;2022-11-20T13:11:03;17.50;51.20
69054;DHT22;56125;52.242;4.756;2022-11-20T13:16:19;17.40;51.30
69054;DHT22;56125;52.242;4.756;2022-11-20T13:26:36;17.50;50.10
69054;DHT22;56125;52.242;4.756;2022-11-20T13:31:41;17.50;51.20
69054;DHT22;56125;52.242;4.756;2022-11-20T13:36:54;17.50;51.30
69054;DHT22;56125;52.242;4.756;2022-11-20T13:41:58;17.50;51.60
69054;DHT22;56125;52.242;4.756;2022-11-20T13:46:59;17.60;51.70
69054;DHT22;56125;52.242;4.756;2022-11-20T13:52:32;17.60;51.70
69054;DHT22;56125;52.242;4.756;2022-11-20T14:03:10;17.60;52.80
69054;DHT22;56125;52.242;4.756;2022-11-20T14:08:25;17.60;51.70
69054;DHT22;56125;52.242;4.756;2022-11-20T14:13:27;17.60;51.30
69054;DHT22;56125;52.242;4.756;2022-11-20T14:18:28;17.60;51.00
69054;DHT22;56125;52.242;4.756;2022-11-20T14:23:29;17.60;50.80
69054;DHT22;56125;52.242;4.756;2022-11-20T14:28:31;17.60;51.20
69054;DHT22;56125;52.242;4.756;2022-11-20T14:33:33;17.60;52.00
69054;DHT22;56125;52.242;4.756;2022-11-20T14:38:34;17.50;51.50
69054;DHT22;56125;52.242;4.756;2022-11-20T14:43:36;17.50;51.20
69054;DHT22;56125;52.242;4.756;2022-11-20T14:48:47;17.50;50.80
69054;DHT22;56125;52.242;4.756;2022-11-20T14:53:48;17.50;50.60
69054;DHT22;56125;52.242;4.756;2022-11-20T14:58:58;17.50;50.40
69054;DHT22;56125;52.242;4.756;2022-11-20T15:04:10;17.40;50.20
69054;DHT22;56125;52.242;4.756;2022-11-20T15:09:15;17.40;50.00
69054;DHT22;56125;52.242;4.756;2022-11-20T15:14:16;17.40;49.70
69054;DHT22;56125;52.242;4.756;2022-11-20T15:19:20;17.40;49.70
69054;DHT22;56125;52.242;4.756;2022-11-20T15:24:22;17.40;49.50
69054;DHT22;56125;52.242;4.756;2022-11-20T15:29:23;17.40;49.50
69054;DHT22;56125;52.242;4.756;2022-11-20T15:34:26;17.40;49.40
69054;DHT22;56125;52.242;4.756;2022-11-20T15:39:28;17.40;49.20
69054;DHT22;56125;52.242;4.756;2022-11-20T15:44:29;17.40;49.20
69054;DHT22;56125;52.242;4.756;2022-11-20T15:49:30;17.40;49.10
69054;DHT22;56125;52.242;4.756;2022-11-20T15:54:31;17.40;49.20
69054;DHT22;56125;52.242;4.756;2022-11-20T15:59:32;17.40;49.10
69054;DHT22;56125;52.242;4.756;2022-11-20T16:04:33;17.30;48.90
69054;DHT22;56125;52.242;4.756;2022-11-20T16:09:34;17.40;48.90
69054;DHT22;56125;52.242;4.756;2022-11-20T16:14:35;17.30;48.70
69054;DHT22;56125;52.242;4.756;2022-11-20T16:19:54;17.30;48.40
69054;DHT22;56125;52.242;4.756;2022-11-20T16:24:55;17.30;48.40
69054;DHT22;56125;52.242;4.756;2022-11-20T16:29:56;17.30;48.40
69054;DHT22;56125;52.242;4.756;2022-11-20T16:34:57;17.30;48.30
69054;DHT22;56125;52.242;4.756;2022-11-20T16:39:59;17.20;48.20
69054;DHT22;56125;52.242;4.756;2022-11-20T16:45:00;17.20;48.20
69054;DHT22;56125;52.242;4.756;2022-11-20T16:50:02;17.20;48.30
69054;DHT22;56125;52.242;4.756;2022-11-20T16:55:03;17.20;48.30
69054;DHT22;56125;52.242;4.756;2022-11-20T17:00:05;17.20;48.40
69054;DHT22;56125;52.242;4.756;2022-11-20T17:05:06;17.20;48.40
69054;DHT22;56125;52.242;4.756;2022-11-20T17:10:08;17.20;49.30
69054;DHT22;56125;52.242;4.756;2022-11-20T17:15:09;17.20;48.40
69054;DHT22;56125;52.242;4.756;2022-11-20T17:20:10;17.20;48.40
69054;DHT22;56125;52.242;4.756;2022-11-20T17:25:12;17.20;48.40
69054;DHT22;56125;52.242;4.756;2022-11-20T17:30:13;17.20;48.50
69054;DHT22;56125;52.242;4.756;2022-11-20T17:35:14;17.20;48.40
69054;DHT22;56125;52.242;4.756;2022-11-20T17:40:15;17.10;48.40
69054;DHT22;56125;52.242;4.756;2022-11-20T17:45:16;17.10;48.40
69054;DHT22;56125;52.242;4.756;2022-11-20T17:50:17;17.10;48.40
69054;DHT22;56125;52.242;4.756;2022-11-20T17:55:18;17.10;48.40
69054;DHT22;56125;52.242;4.756;2022-11-20T18:00:19;17.10;48.50
69054;DHT22;56125;52.242;4.756;2022-11-20T18:05:20;17.10;48.80
69054;DHT22;56125;52.242;4.756;2022-11-20T18:10:22;17.10;48.40
69054;DHT22;56125;52.242;4.756;2022-11-20T18:15:23;17.10;48.70
69054;DHT22;56125;52.242;4.756;2022-11-20T18:20:24;17.10;48.70
69054;DHT22;56125;52.242;4.756;2022-11-20T18:25:25;17.10;48.60
69054;DHT22;56125;52.242;4.756;2022-11-20T18:30:26;17.10;48.70
69054;DHT22;56125;52.242;4.756;2022-11-20T18:35:27;17.10;48.70
69054;DHT22;56125;52.242;4.756;2022-11-20T18:40:28;17.00;48.60
69054;DHT22;56125;52.242;4.756;2022-11-20T18:45:29;17.00;48.60
69054;DHT22;56125;52.242;4.756;2022-11-20T18:50:30;17.00;48.70
69054;DHT22;56125;52.242;4.756;2022-11-20T18:55:31;17.00;48.70
69054;DHT22;56125;52.242;4.756;2022-11-20T19:00:32;17.10;48.70
69054;DHT22;56125;52.242;4.756;2022-11-20T19:05:35;17.00;48.80
69054;DHT22;56125;52.242;4.756;2022-11-20T19:10:36;17.00;48.80
69054;DHT22;56125;52.242;4.756;2022-11-20T19:15:37;17.00;48.70
69054;DHT22;56125;52.242;4.756;2022-11-20T19:20:38;17.00;48.70
69054;DHT22;56125;52.242;4.756;2022-11-20T19:25:39;17.00;48.80
69054;DHT22;56125;52.242;4.756;2022-11-20T19:30:40;17.00;48.80
69054;DHT22;56125;52.242;4.756;2022-11-20T19:35:42;17.00;48.80
69054;DHT22;56125;52.242;4.756;2022-11-20T19:40:43;17.00;48.80
69054;DHT22;56125;52.242;4.756;2022-11-20T19:45:44;17.00;48.80
69054;DHT22;56125;52.242;4.756;2022-11-20T19:50:46;17.00;48.80
69054;DHT22;56125;52.242;4.756;2022-11-20T19:55:57;17.00;48.80
69054;DHT22;56125;52.242;4.756;2022-11-20T20:01:05;17.00;48.80
69054;DHT22;56125;52.242;4.756;2022-11-20T20:06:10;16.90;48.90
69054;DHT22;56125;52.242;4.756;2022-11-20T20:11:18;17.00;48.90
69054;DHT22;56125;52.242;4.756;2022-11-20T20:16:21;17.00;48.90
69054;DHT22;56125;52.242;4.756;2022-11-20T20:21:23;17.00;48.90
69054;DHT22;56125;52.242;4.756;2022-11-20T20:26:26;17.00;48.90
69054;DHT22;56125;52.242;4.756;2022-11-20T20:31:29;16.90;48.80
69054;DHT22;56125;52.242;4.756;2022-11-20T20:36:31;16.90;48.90
69054;DHT22;56125;52.242;4.756;2022-11-20T20:41:32;16.90;48.90
69054;DHT22;56125;52.242;4.756;2022-11-20T20:46:33;16.90;48.90
69054;DHT22;56125;52.242;4.756;2022-11-20T20:51:34;16.90;48.90
69054;DHT22;56125;52.242;4.756;2022-11-20T20:56:36;16.90;48.90
69054;DHT22;56125;52.242;4.756;2022-11-20T21:01:37;16.90;48.80
69054;DHT22;56125;52.242;4.756;2022-11-20T21:06:38;16.90;48.80
69054;DHT22;56125;52.242;4.756;2022-11-20T21:11:39;16.90;48.90
69054;DHT22;56125;52.242;4.756;2022-11-20T21:16:40;16.90;49.00
69054;DHT22;56125;52.242;4.756;2022-11-20T21:21:43;16.90;49.00
69054;DHT22;56125;52.242;4.756;2022-11-20T21:27:02;16.90;50.00
69054;DHT22;56125;52.242;4.756;2022-11-20T21:32:04;16.90;49.00
69054;DHT22;56125;52.242;4.756;2022-11-20T21:37:05;16.90;49.00
69054;DHT22;56125;52.242;4.756;2022-11-20T21:42:06;16.90;49.10
69054;DHT22;56125;52.242;4.756;2022-11-20T21:47:07;16.90;49.00
69054;DHT22;56125;52.242;4.756;2022-11-20T21:52:08;16.90;48.90
69054;DHT22;56125;52.242;4.756;2022-11-20T21:57:09;16.90;49.00
69054;DHT22;56125;52.242;4.756;2022-11-20T22:02:11;16.80;48.90
69054;DHT22;56125;52.242;4.756;2022-11-20T22:07:12;16.90;49.00
69054;DHT22;56125;52.242;4.756;2022-11-20T22:12:13;16.90;48.90
69054;DHT22;56125;52.242;4.756;2022-11-20T22:17:14;16.90;49.00
69054;DHT22;56125;52.242;4.756;2022-11-20T22:22:15;16.80;49.00
69054;DHT22;56125;52.242;4.756;2022-11-20T22:27:16;16.80;48.90
69054;DHT22;56125;52.242;4.756;2022-11-20T22:32:17;16.80;48.80
69054;DHT22;56125;52.242;4.756;2022-11-20T22:37:18;16.80;48.90
69054;DHT22;56125;52.242;4.756;2022-11-20T22:42:19;16.80;49.00
69054;DHT22;56125;52.242;4.756;2022-11-20T22:47:20;16.80;48.90
69054;DHT22;56125;52.242;4.756;2022-11-20T22:52:21;16.80;48.90
69054;DHT22;56125;52.242;4.756;2022-11-20T22:57:22;16.80;48.90
69054;DHT22;56125;52.242;4.756;2022-11-20T23:02:23;16.80;48.90
69054;DHT22;56125;52.242;4.756;2022-11-20T23:07:24;16.80;48.90
69054;DHT22;56125;52.242;4.756;2022-11-20T23:12:25;16.80;48.90
69054;DHT22;56125;52.242;4.756;2022-11-20T23:17:26;16.80;49.00
69054;DHT22;56125;52.242;4.756;2022-11-20T23:22:27;16.80;49.00
69054;DHT22;56125;52.242;4.756;2022-11-20T23:27:28;16.70;48.90
69054;DHT22;56125;52.242;4.756;2022-11-20T23:32:29;16.80;49.00
69054;DHT22;56125;52.242;4.756;2022-11-20T23:37:30;16.70;48.90
69054;DHT22;56125;52.242;4.756;2022-11-20T23:42:31;16.80;48.90
69054;DHT22;56125;52.242;4.756;2022-11-20T23:47:32;16.80;48.90
69054;DHT22;56125;52.242;4.756;2022-11-20T23:52:33;16.80;48.90
69054;DHT22;56125;52.242;4.756;2022-11-20T23:57:34;16.80;49.00
